Time;durP1;ratioP1;P1;durP2;ratioP2;P2;SDS_P1;SDS_P2;PMS_P1;PMS_P2;Temp;Humidity;BMP_temperature;BMP_pressure;BME280_temperature;BME280_humidity;BME280_pressure;Samples;Min_cycle;Max_cycle;Signal;HPM_P1;HPM_P2
2022/10/13 00:00:56;;;;;;;24.50;19.03;;;13.70;99.90;;;;;;5082165;28;20231;-51
2022/10/13 00:03:24;;;;;;;29.67;20.47;;;13.60;99.90;;;;;;5077863;28;20221;-52
2022/10/13 00:05:51;;;;;;;22.50;19.23;;;13.60;99.90;;;;;;5075298;28;20786;-50
2022/10/13 00:08:20;;;;;;;24.40;18.67;;;13.50;99.90;;;;;;5087170;28;20487;-51
2022/10/13 00:10:48;;;;;;;20.87;17.47;;;13.50;99.90;;;;;;5083585;28;20849;-51
2022/10/13 00:13:16;;;;;;;28.13;21.30;;;13.40;99.90;;;;;;5079873;28;20219;-52
2022/10/13 00:15:46;;;;;;;30.10;20.57;;;13.40;99.90;;;;;;5088238;28;20250;-51
2022/10/13 00:18:14;;;;;;;29.27;20.63;;;13.40;99.90;;;;;;5095500;28;20200;-51
2022/10/13 00:20:43;;;;;;;23.33;19.83;;;13.30;99.90;;;;;;5084466;28;20209;-51
2022/10/13 00:23:10;;;;;;;27.27;20.07;;;13.20;99.90;;;;;;5087726;28;20227;-53
2022/10/13 00:25:42;;;;;;;22.77;19.13;;;13.20;99.90;;;;;;5095302;28;20269;-51
2022/10/13 00:28:09;;;;;;;21.70;17.23;;;13.10;99.90;;;;;;5086508;28;20295;-51
2022/10/13 00:30:36;;;;;;;26.63;19.37;;;13.10;99.90;;;;;;5082479;28;20325;-52
2022/10/13 00:33:05;;;;;;;23.77;18.87;;;13.00;99.90;;;;;;5081767;28;20217;-51
2022/10/13 00:35:32;;;;;;;24.67;17.73;;;13.00;99.90;;;;;;5082023;28;20204;-51
2022/10/13 00:37:59;;;;;;;31.60;20.20;;;12.90;99.90;;;;;;5095012;28;20550;-51
2022/10/13 00:40:26;;;;;;;23.93;16.70;;;12.90;99.90;;;;;;5078830;28;20242;-51
2022/10/13 00:42:53;;;;;;;24.37;17.63;;;12.80;99.90;;;;;;5093761;28;20216;-51
2022/10/13 00:45:22;;;;;;;25.80;17.87;;;12.80;99.90;;;;;;5090090;28;20686;-51
2022/10/13 00:47:54;;;;;;;20.67;16.73;;;12.80;99.90;;;;;;5084659;28;20224;-51
2022/10/13 00:50:25;;;;;;;30.63;18.97;;;12.70;99.90;;;;;;5080844;28;20196;-51
2022/10/13 00:52:54;;;;;;;25.37;18.40;;;12.60;99.90;;;;;;5081957;28;20713;-51
2022/10/13 00:55:23;;;;;;;27.00;19.43;;;12.60;99.90;;;;;;5088968;28;20241;-51
2022/10/13 00:57:53;;;;;;;25.30;17.50;;;12.60;99.90;;;;;;5091844;28;20204;-51
2022/10/13 01:00:21;;;;;;;23.37;16.33;;;12.50;99.90;;;;;;5079558;28;20192;-51
2022/10/13 01:02:48;;;;;;;20.03;17.77;;;12.50;99.90;;;;;;5084348;28;20665;-51
2022/10/13 01:05:16;;;;;;;23.13;17.37;;;12.50;99.90;;;;;;5094611;28;20249;-51
2022/10/13 01:07:47;;;;;;;24.77;15.20;;;12.40;99.90;;;;;;5083871;28;20310;-51
2022/10/13 01:10:23;;;;;;;25.33;17.57;;;12.40;99.90;;;;;;5086235;28;20286;-51
2022/10/13 01:12:58;;;;;;;24.47;17.27;;;12.40;99.90;;;;;;5077715;28;20221;-51
2022/10/13 01:15:32;;;;;;;22.77;16.27;;;12.40;99.90;;;;;;5094421;28;20200;-51
2022/10/13 01:18:08;;;;;;;18.43;15.00;;;12.30;99.90;;;;;;5090390;28;20337;-51
2022/10/13 01:20:57;;;;;;;17.90;14.77;;;12.40;99.90;;;;;;5084309;28;20195;-51
2022/10/13 01:23:53;;;;;;;20.77;15.67;;;12.40;99.90;;;;;;5085214;28;20289;-51
2022/10/13 01:26:50;;;;;;;20.97;16.10;;;12.40;99.90;;;;;;5088370;28;20261;-51
2022/10/13 01:29:34;;;;;;;21.70;14.90;;;12.40;99.90;;;;;;5094151;28;20620;-51
2022/10/13 01:32:08;;;;;;;19.80;14.60;;;12.50;99.90;;;;;;5094251;28;20220;-51
2022/10/13 01:34:41;;;;;;;24.80;16.83;;;12.40;99.90;;;;;;5090112;28;20257;-51
2022/10/13 01:37:17;;;;;;;20.30;15.93;;;12.50;99.90;;;;;;5088694;28;20196;-56
2022/10/13 01:39:52;;;;;;;27.10;18.93;;;12.50;99.90;;;;;;5085320;28;20199;-52
2022/10/13 01:42:24;;;;;;;26.77;17.70;;;12.50;99.90;;;;;;5079556;28;20276;-51
2022/10/13 01:44:54;;;;;;;27.07;17.20;;;12.60;99.90;;;;;;5073554;28;20208;-51
2022/10/13 01:47:25;;;;;;;27.03;18.57;;;12.60;99.90;;;;;;5078856;28;20211;-51
2022/10/13 01:49:54;;;;;;;25.07;16.80;;;12.50;99.90;;;;;;5077469;28;20292;-51
2022/10/13 01:52:23;;;;;;;23.27;17.27;;;12.60;99.90;;;;;;5081217;28;20213;-51
2022/10/13 01:54:52;;;;;;;23.60;16.07;;;12.50;99.90;;;;;;5091693;28;20260;-51
2022/10/13 01:57:33;;;;;;;23.30;15.77;;;12.50;99.90;;;;;;5085558;28;20245;-51
2022/10/13 02:00:02;;;;;;;19.30;15.57;;;12.30;99.90;;;;;;5084510;28;20196;-51
2022/10/13 02:02:37;;;;;;;19.43;14.80;;;12.30;99.90;;;;;;5083159;28;20306;-52
2022/10/13 02:05:14;;;;;;;24.07;16.17;;;12.20;99.90;;;;;;5081338;28;20191;-53
2022/10/13 02:07:46;;;;;;;19.03;14.90;;;12.10;99.90;;;;;;5079400;28;20214;-51
2022/10/13 02:10:21;;;;;;;18.30;14.47;;;12.10;99.90;;;;;;5086933;28;20196;-51
2022/10/13 02:12:52;;;;;;;20.33;14.23;;;12.00;99.90;;;;;;5091390;28;20233;-51
2022/10/13 02:15:23;;;;;;;22.10;15.50;;;12.00;99.90;;;;;;5084153;28;20263;-51
2022/10/13 02:17:53;;;;;;;17.70;14.07;;;12.00;99.90;;;;;;5076591;28;20193;-51
2022/10/13 02:20:21;;;;;;;16.03;13.80;;;11.90;99.90;;;;;;5093460;28;20652;-51
2022/10/13 02:22:54;;;;;;;17.03;13.87;;;11.90;99.90;;;;;;5089698;28;20238;-51
2022/10/13 02:25:21;;;;;;;19.13;14.00;;;11.80;99.90;;;;;;5079475;28;20200;-51
2022/10/13 02:27:48;;;;;;;18.93;13.83;;;11.80;99.90;;;;;;5081961;28;20265;-51
2022/10/13 02:30:23;;;;;;;19.10;14.17;;;11.70;99.90;;;;;;5085194;28;20253;-51
2022/10/13 02:32:52;;;;;;;16.67;13.63;;;11.70;99.90;;;;;;5076370;28;20276;-51
2022/10/13 02:35:19;;;;;;;19.47;13.87;;;11.60;99.90;;;;;;5093102;28;20207;-51
2022/10/13 02:37:46;;;;;;;17.87;14.23;;;11.60;99.90;;;;;;5090980;28;20230;-51
2022/10/13 02:40:13;;;;;;;17.77;14.40;;;11.60;99.90;;;;;;5090139;28;20549;-51
2022/10/13 02:42:40;;;;;;;15.67;13.53;;;11.60;99.90;;;;;;5083652;28;20223;-50
2022/10/13 02:45:08;;;;;;;23.43;16.03;;;11.60;99.90;;;;;;5075120;28;20197;-51
2022/10/13 02:47:35;;;;;;;24.07;14.37;;;11.50;99.90;;;;;;5075974;28;20209;-55
2022/10/13 02:50:04;;;;;;;22.87;15.07;;;11.50;99.90;;;;;;5072493;28;20674;-51
2022/10/13 02:52:31;;;;;;;20.37;14.57;;;11.60;99.90;;;;;;5077948;28;20276;-51
2022/10/13 02:54:58;;;;;;;21.10;16.17;;;11.60;99.90;;;;;;5072990;28;20226;-51
2022/10/13 02:57:25;;;;;;;27.10;17.20;;;11.60;99.90;;;;;;5077349;28;20261;-51
2022/10/13 02:59:52;;;;;;;24.80;16.43;;;11.60;99.90;;;;;;5088339;28;20254;-50
2022/10/13 03:02:19;;;;;;;24.50;16.37;;;11.60;99.90;;;;;;5087231;28;20284;-51
2022/10/13 03:04:47;;;;;;;23.87;16.77;;;11.60;99.90;;;;;;5079137;28;20197;-51
2022/10/13 03:07:15;;;;;;;22.53;16.10;;;11.50;99.90;;;;;;5083215;28;20220;-52
2022/10/13 03:09:42;;;;;;;18.57;15.30;;;11.50;99.90;;;;;;5074428;28;20318;-50
2022/10/13 03:12:09;;;;;;;22.83;15.67;;;11.50;99.90;;;;;;5073159;28;20275;-51
2022/10/13 03:14:36;;;;;;;18.17;15.03;;;11.50;99.90;;;;;;5081006;28;20192;-51
2022/10/13 03:17:04;;;;;;;18.30;15.40;;;11.50;99.90;;;;;;5085943;28;20195;-50
2022/10/13 03:19:31;;;;;;;22.30;14.63;;;11.50;99.90;;;;;;5091162;28;20559;-51
2022/10/13 03:21:58;;;;;;;18.27;14.63;;;11.50;99.90;;;;;;5090277;28;20231;-51
2022/10/13 03:24:26;;;;;;;15.87;13.57;;;11.40;99.90;;;;;;5076393;28;20201;-51
2022/10/13 03:26:53;;;;;;;25.30;14.37;;;11.40;99.90;;;;;;5071805;28;20215;-51
2022/10/13 03:29:21;;;;;;;25.20;16.93;;;11.30;99.90;;;;;;5077519;28;20207;-51
2022/10/13 03:31:48;;;;;;;21.63;15.20;;;11.30;99.90;;;;;;5089914;28;20237;-51
2022/10/13 03:34:16;;;;;;;19.90;14.33;;;11.30;99.90;;;;;;5091819;28;20277;-51
2022/10/13 03:36:43;;;;;;;24.53;17.60;;;11.20;99.90;;;;;;5089677;28;20195;-51
2022/10/13 03:39:10;;;;;;;21.33;16.23;;;11.20;99.90;;;;;;5081188;28;20686;-51
2022/10/13 03:41:39;;;;;;;23.23;16.00;;;11.20;99.90;;;;;;5081480;28;20741;-51
2022/10/13 03:44:06;;;;;;;22.63;15.97;;;11.20;99.90;;;;;;5091589;28;20195;-51
2022/10/13 03:46:34;;;;;;;19.17;14.03;;;11.10;99.90;;;;;;5083091;28;20223;-52
2022/10/13 03:49:00;;;;;;;28.10;16.93;;;11.10;99.90;;;;;;5078815;28;20224;-51
2022/10/13 03:51:27;;;;;;;18.67;14.17;;;11.00;99.90;;;;;;5078439;28;20203;-51
2022/10/13 03:53:54;;;;;;;22.30;17.23;;;11.00;99.90;;;;;;5086612;28;20267;-51
2022/10/13 03:56:23;;;;;;;18.50;14.03;;;11.00;99.90;;;;;;5071500;28;20549;-51
2022/10/13 03:58:53;;;;;;;19.83;14.93;;;11.00;99.90;;;;;;5071213;28;20212;-51
2022/10/13 04:01:21;;;;;;;25.50;14.97;;;11.00;99.90;;;;;;5081795;28;20193;-51
2022/10/13 04:03:48;;;;;;;22.47;14.30;;;11.00;99.90;;;;;;5079997;28;20223;-51
2022/10/13 04:06:15;;;;;;;25.30;15.20;;;11.00;99.90;;;;;;5081859;28;20248;-51
2022/10/13 04:08:44;;;;;;;22.37;13.80;;;11.00;99.90;;;;;;5086271;28;20273;-51
2022/10/13 04:11:14;;;;;;;20.20;14.07;;;11.00;99.90;;;;;;5079858;28;20257;-51
2022/10/13 04:13:45;;;;;;;16.37;12.80;;;11.10;99.90;;;;;;5086692;28;20225;-50
2022/10/13 04:16:17;;;;;;;16.63;13.80;;;11.10;99.90;;;;;;5082902;28;20280;-51
2022/10/13 04:18:50;;;;;;;14.50;12.17;;;11.00;99.90;;;;;;5073926;28;20215;-51
2022/10/13 04:21:17;;;;;;;15.80;12.30;;;10.90;99.90;;;;;;5080805;28;20277;-51
2022/10/13 04:23:46;;;;;;;14.10;12.17;;;10.90;99.90;;;;;;5087383;28;20223;-50
2022/10/13 04:26:18;;;;;;;14.73;13.07;;;10.80;99.90;;;;;;5074248;28;20204;-50
2022/10/13 04:28:47;;;;;;;16.00;11.33;;;10.80;99.90;;;;;;5081561;28;20214;-50
2022/10/13 04:31:16;;;;;;;13.27;11.20;;;10.70;99.90;;;;;;5078158;28;20207;-51
2022/10/13 04:33:45;;;;;;;14.37;12.40;;;10.70;99.90;;;;;;5088694;28;20267;-50
2022/10/13 04:36:14;;;;;;;13.93;12.40;;;10.70;99.90;;;;;;5083022;28;20197;-51
2022/10/13 04:38:45;;;;;;;18.87;11.90;;;10.70;99.90;;;;;;5078748;28;20661;-51
2022/10/13 04:41:16;;;;;;;17.23;12.50;;;10.70;99.90;;;;;;5088674;28;20192;-51
2022/10/13 04:43:44;;;;;;;15.47;12.40;;;10.70;99.90;;;;;;5076515;28;20219;-51
2022/10/13 04:46:16;;;;;;;16.73;12.67;;;10.70;99.90;;;;;;5084097;28;20199;-51
2022/10/13 04:48:43;;;;;;;17.30;12.90;;;10.70;99.90;;;;;;5087241;28;20701;-51
2022/10/13 04:51:12;;;;;;;17.17;13.13;;;10.60;99.90;;;;;;5073785;28;20208;-51
2022/10/13 04:53:42;;;;;;;16.27;12.47;;;10.60;99.90;;;;;;5073288;28;20212;-50
2022/10/13 04:56:11;;;;;;;20.97;14.30;;;10.60;99.90;;;;;;5086326;28;20207;-51
2022/10/13 04:58:41;;;;;;;15.50;12.00;;;10.60;99.90;;;;;;5083632;28;20208;-51
2022/10/13 05:01:12;;;;;;;17.83;12.33;;;10.60;99.90;;;;;;5087972;28;20213;-51
2022/10/13 05:03:44;;;;;;;18.03;13.20;;;10.50;99.90;;;;;;5085416;28;20213;-51
2022/10/13 05:06:16;;;;;;;18.97;13.00;;;10.50;99.90;;;;;;5080851;28;20207;-51
2022/10/13 05:08:46;;;;;;;16.70;11.50;;;10.50;99.90;;;;;;5083185;28;20219;-51
2022/10/13 05:11:14;;;;;;;15.30;13.07;;;10.50;99.90;;;;;;5083111;28;20619;-51
2022/10/13 05:13:41;;;;;;;18.63;13.73;;;10.50;99.90;;;;;;5080387;28;20224;-50
2022/10/13 05:16:08;;;;;;;20.67;14.93;;;10.50;99.90;;;;;;5086468;28;20254;-51
2022/10/13 05:18:36;;;;;;;17.87;14.43;;;10.50;99.90;;;;;;5084630;28;20511;-51
2022/10/13 05:21:09;;;;;;;22.13;14.30;;;10.40;99.90;;;;;;5082395;28;20734;-51
2022/10/13 05:23:37;;;;;;;19.63;13.13;;;10.40;99.90;;;;;;5086843;28;20303;-51
2022/10/13 05:26:05;;;;;;;15.20;13.53;;;10.50;99.90;;;;;;5077471;28;20199;-51
2022/10/13 05:28:33;;;;;;;20.77;13.03;;;10.50;99.90;;;;;;5078390;28;20626;-50
2022/10/13 05:31:10;;;;;;;23.10;16.47;;;10.50;99.90;;;;;;5079561;28;20252;-51
2022/10/13 05:33:40;;;;;;;21.63;16.10;;;10.60;99.90;;;;;;5075987;28;20214;-51
2022/10/13 05:36:11;;;;;;;22.87;17.23;;;10.70;99.90;;;;;;5077884;28;20260;-51
2022/10/13 05:38:41;;;;;;;20.70;15.27;;;10.70;99.90;;;;;;5084908;28;20198;-51
2022/10/13 05:41:11;;;;;;;21.97;15.40;;;10.60;99.90;;;;;;5082474;28;20249;-52
2022/10/13 05:43:42;;;;;;;16.50;13.80;;;10.60;99.90;;;;;;5079539;28;20270;-51
2022/10/13 05:46:10;;;;;;;16.77;12.73;;;10.60;99.90;;;;;;5076451;28;20196;-52
2022/10/13 05:48:41;;;;;;;16.47;12.43;;;10.60;99.90;;;;;;5083200;28;20215;-51
2022/10/13 05:51:13;;;;;;;18.93;13.83;;;10.60;99.90;;;;;;5082522;28;20192;-50
2022/10/13 05:53:47;;;;;;;18.40;13.87;;;10.60;99.90;;;;;;5086394;28;20217;-51
2022/10/13 05:56:19;;;;;;;17.13;12.77;;;10.60;99.90;;;;;;5084299;28;20267;-51
2022/10/13 05:58:50;;;;;;;16.03;13.07;;;10.60;99.90;;;;;;5081573;28;20195;-50
2022/10/13 06:01:20;;;;;;;15.30;12.33;;;10.60;99.90;;;;;;5077266;28;20287;-52
2022/10/13 06:03:49;;;;;;;15.77;12.50;;;10.60;99.90;;;;;;5072298;28;20228;-51
2022/10/13 06:06:17;;;;;;;19.23;12.77;;;10.60;99.90;;;;;;5076550;28;20200;-51
2022/10/13 06:08:47;;;;;;;16.07;12.40;;;10.60;99.90;;;;;;5083733;28;20268;-50
2022/10/13 06:11:14;;;;;;;18.13;14.23;;;10.60;99.90;;;;;;5084786;28;20199;-51
2022/10/13 06:13:41;;;;;;;15.57;11.87;;;10.60;99.90;;;;;;5088062;28;20217;-51
2022/10/13 06:16:08;;;;;;;21.27;12.27;;;10.60;99.90;;;;;;5080699;28;20251;-52
2022/10/13 06:18:35;;;;;;;20.07;12.93;;;10.60;99.90;;;;;;5080377;28;20353;-51
2022/10/13 06:21:02;;;;;;;23.27;13.30;;;10.70;99.90;;;;;;5081548;28;20206;-51
2022/10/13 06:23:31;;;;;;;18.17;11.03;;;10.80;99.90;;;;;;5082274;28;20639;-51
2022/10/13 06:25:58;;;;;;;17.77;11.23;;;10.90;99.90;;;;;;5075355;28;20204;-51
2022/10/13 06:28:26;;;;;;;15.23;11.50;;;11.00;99.90;;;;;;5088456;28;20299;-51
2022/10/13 06:30:55;;;;;;;17.27;12.17;;;11.00;99.90;;;;;;5075373;28;20208;-51
2022/10/13 06:33:22;;;;;;;14.80;11.47;;;11.10;99.90;;;;;;5081631;28;20619;-50
2022/10/13 06:35:50;;;;;;;13.83;12.07;;;11.20;99.90;;;;;;5079429;28;20660;-51
2022/10/13 06:38:17;;;;;;;13.63;11.23;;;11.40;99.90;;;;;;5077230;28;20194;-51
2022/10/13 06:40:46;;;;;;;16.63;10.80;;;11.50;99.90;;;;;;5081638;28;20752;-51
2022/10/13 06:43:13;;;;;;;15.30;11.30;;;11.60;99.90;;;;;;5076506;28;20705;-51
2022/10/13 06:45:40;;;;;;;15.17;11.17;;;11.60;99.90;;;;;;5071981;28;20206;-51
2022/10/13 06:48:07;;;;;;;12.17;9.33;;;11.80;99.90;;;;;;5080162;28;20295;-51
2022/10/13 06:50:34;;;;;;;9.77;8.50;;;11.90;99.90;;;;;;5072625;28;20200;-51
2022/10/13 06:53:01;;;;;;;11.90;9.80;;;12.00;99.90;;;;;;5082338;28;20223;-51
2022/10/13 06:55:28;;;;;;;11.50;8.47;;;12.10;99.90;;;;;;5079577;28;20194;-51
2022/10/13 06:57:56;;;;;;;16.77;9.13;;;12.20;99.90;;;;;;5074742;28;20202;-51
2022/10/13 07:00:23;;;;;;;16.57;8.57;;;12.30;99.90;;;;;;5082719;28;20199;-51
2022/10/13 07:02:51;;;;;;;11.63;9.37;;;12.50;99.90;;;;;;5073755;28;20217;-51
2022/10/13 07:05:18;;;;;;;14.87;9.13;;;12.60;99.90;;;;;;5089298;28;20279;-51
2022/10/13 07:07:45;;;;;;;9.87;7.77;;;12.60;99.90;;;;;;5089815;28;20806;-51
2022/10/13 07:10:12;;;;;;;10.27;8.47;;;12.70;99.90;;;;;;5090377;28;20193;-51
2022/10/13 07:12:39;;;;;;;11.80;8.40;;;12.70;99.90;;;;;;5079247;28;20637;-52
2022/10/13 07:15:09;;;;;;;8.97;7.10;;;12.70;99.90;;;;;;5084590;28;20618;-51
2022/10/13 07:17:36;;;;;;;10.10;8.20;;;12.70;99.90;;;;;;5089912;28;20196;-51
2022/10/13 07:20:03;;;;;;;10.03;9.10;;;12.80;99.90;;;;;;5089489;28;20200;-51
2022/10/13 07:22:30;;;;;;;8.77;7.97;;;12.80;99.90;;;;;;5071198;28;20315;-51
2022/10/13 07:24:58;;;;;;;9.37;8.37;;;12.90;99.90;;;;;;5070595;28;20211;-51
2022/10/13 07:27:25;;;;;;;10.77;9.67;;;12.90;99.90;;;;;;5075270;28;20200;-51
2022/10/13 07:29:52;;;;;;;9.37;8.40;;;13.00;99.90;;;;;;5080398;28;20270;-54
2022/10/13 07:32:20;;;;;;;15.33;9.93;;;13.10;99.90;;;;;;5076238;28;20231;-51
2022/10/13 07:34:47;;;;;;;12.17;8.47;;;13.00;99.90;;;;;;5075908;28;20201;-52
2022/10/13 07:37:14;;;;;;;12.53;8.60;;;13.00;99.90;;;;;;5076814;28;20613;-52
2022/10/13 07:39:41;;;;;;;12.57;9.63;;;13.10;99.90;;;;;;5070868;28;20186;-52
2022/10/13 07:42:08;;;;;;;14.97;7.50;;;13.10;99.90;;;;;;5070783;28;20231;-51
2022/10/13 07:44:35;;;;;;;8.33;7.37;;;13.10;99.90;;;;;;5071040;28;20204;-51
2022/10/13 07:47:02;;;;;;;10.33;8.10;;;13.30;99.90;;;;;;5070590;28;20265;-51
2022/10/13 07:49:31;;;;;;;11.60;9.30;;;13.60;99.90;;;;;;5082929;28;20216;-52
2022/10/13 07:51:58;;;;;;;11.50;7.93;;;13.80;99.90;;;;;;5086388;28;20642;-51
2022/10/13 07:54:25;;;;;;;9.00;8.10;;;14.00;99.90;;;;;;5082410;28;20653;-51
2022/10/13 07:56:52;;;;;;;10.77;6.53;;;14.20;99.90;;;;;;5089527;28;20204;-51
2022/10/13 07:59:19;;;;;;;10.63;7.23;;;14.30;99.90;;;;;;5089699;28;20245;-51
2022/10/13 08:01:47;;;;;;;8.47;6.47;;;14.50;99.90;;;;;;5089202;28;20270;-51
2022/10/13 08:04:14;;;;;;;10.87;6.57;;;14.50;99.90;;;;;;5079765;28;20204;-51
2022/10/13 08:06:42;;;;;;;6.70;6.07;;;14.50;99.90;;;;;;5078564;28;20266;-51
2022/10/13 08:09:10;;;;;;;10.13;7.10;;;14.50;99.90;;;;;;5070209;28;20269;-51
2022/10/13 08:11:37;;;;;;;9.77;7.57;;;14.40;99.90;;;;;;5070952;28;20203;-51
2022/10/13 08:14:04;;;;;;;12.33;7.03;;;14.40;99.90;;;;;;5070032;28;20659;-51
2022/10/13 08:16:32;;;;;;;13.83;7.20;;;14.40;99.90;;;;;;5070488;28;20197;-50
2022/10/13 08:19:00;;;;;;;10.60;7.87;;;14.50;99.90;;;;;;5070319;28;20255;-51
2022/10/13 08:21:28;;;;;;;8.80;6.87;;;14.50;99.90;;;;;;5076444;28;20197;-51
2022/10/13 08:23:56;;;;;;;7.93;5.77;;;14.70;99.90;;;;;;5081159;28;20670;-51
2022/10/13 08:26:25;;;;;;;6.93;6.23;;;14.80;99.90;;;;;;5092861;28;20193;-51
2022/10/13 08:28:53;;;;;;;7.07;6.57;;;14.80;99.90;;;;;;5088798;28;20212;-51
2022/10/13 08:31:20;;;;;;;8.87;7.10;;;15.00;99.90;;;;;;5073832;28;20250;-51
2022/10/13 08:33:47;;;;;;;11.27;6.53;;;15.10;99.90;;;;;;5073814;28;20217;-51
2022/10/13 08:36:15;;;;;;;11.80;8.13;;;15.10;99.90;;;;;;5073942;28;20197;-51
2022/10/13 08:38:42;;;;;;;7.57;6.83;;;15.30;99.90;;;;;;5082853;28;20243;-51
2022/10/13 08:41:17;;;;;;;7.93;7.17;;;15.50;99.90;;;;;;5081379;28;20682;-51
2022/10/13 08:43:49;;;;;;;6.87;6.23;;;15.90;99.90;;;;;;5073280;28;20221;-51
2022/10/13 08:46:20;;;;;;;10.53;6.80;;;16.20;99.90;;;;;;5074322;28;20295;-51
2022/10/13 08:48:47;;;;;;;7.67;6.87;;;16.70;99.90;;;;;;5073770;28;20594;-51
2022/10/13 08:51:16;;;;;;;8.77;7.87;;;17.10;99.90;;;;;;5073580;28;20250;-51
2022/10/13 08:53:45;;;;;;;8.23;7.13;;;17.30;99.90;;;;;;5075315;28;20240;-51
2022/10/13 08:56:19;;;;;;;7.77;6.77;;;17.80;99.90;;;;;;5079201;28;20262;-51
2022/10/13 08:58:48;;;;;;;7.50;6.67;;;18.00;99.90;;;;;;5081730;28;20287;-51
2022/10/13 09:01:19;;;;;;;9.80;7.53;;;18.40;99.90;;;;;;5080023;28;20201;-51
2022/10/13 09:03:51;;;;;;;6.90;6.30;;;18.50;99.90;;;;;;5089178;28;20220;-51
2022/10/13 09:06:27;;;;;;;10.57;7.13;;;18.70;99.90;;;;;;5073204;28;20242;-51
2022/10/13 09:08:56;;;;;;;11.17;6.47;;;18.70;99.90;;;;;;5073486;28;20266;-51
2022/10/13 09:11:28;;;;;;;6.23;5.73;;;18.40;99.90;;;;;;5081651;28;20290;-51
2022/10/13 09:13:57;;;;;;;6.30;5.70;;;18.40;99.90;;;;;;5074352;28;20208;-51
2022/10/13 09:16:30;;;;;;;8.37;6.80;;;18.60;99.90;;;;;;5079108;28;20246;-51
2022/10/13 09:19:19;;;;;;;7.23;6.47;;;18.70;99.90;;;;;;5087378;28;20922;-52
2022/10/13 09:21:47;;;;;;;9.07;5.30;;;19.20;99.90;;;;;;5089495;28;20232;-51
2022/10/13 09:24:16;;;;;;;10.20;6.13;;;19.40;99.90;;;;;;5090739;28;20299;-51
2022/10/13 09:26:46;;;;;;;7.20;6.00;;;19.60;99.90;;;;;;5088246;28;20654;-51
2022/10/13 09:29:17;;;;;;;10.13;5.83;;;19.50;99.90;;;;;;5079379;28;20220;-51
2022/10/13 09:31:45;;;;;;;6.07;5.47;;;19.40;99.90;;;;;;5090563;28;20718;-51
2022/10/13 09:34:22;;;;;;;6.67;6.03;;;19.30;99.90;;;;;;5090470;28;20197;-51
2022/10/13 09:36:57;;;;;;;8.03;6.40;;;18.90;99.90;;;;;;5078533;28;20689;-52
2022/10/13 09:39:24;;;;;;;20.17;7.23;;;18.70;99.90;;;;;;5071605;28;20189;-51
2022/10/13 09:41:53;;;;;;;11.33;6.60;;;18.50;99.90;;;;;;5071425;28;20225;-50
2022/10/13 09:44:28;;;;;;;7.87;6.87;;;18.20;99.90;;;;;;5081784;28;20226;-51
2022/10/13 09:46:57;;;;;;;10.30;8.83;;;18.10;99.90;;;;;;5072189;28;20736;-51
2022/10/13 09:49:37;;;;;;;7.10;6.47;;;18.10;99.90;;;;;;5071545;28;20614;-52
2022/10/13 09:52:07;;;;;;;8.83;7.23;;;18.10;99.90;;;;;;5077611;28;20734;-51
2022/10/13 09:54:42;;;;;;;13.30;8.87;;;18.10;99.90;;;;;;5081982;28;20209;-51
2022/10/13 09:57:17;;;;;;;8.33;7.27;;;18.00;99.90;;;;;;5084548;28;20245;-51
2022/10/13 09:59:48;;;;;;;8.53;7.73;;;17.90;99.90;;;;;;5085363;28;20253;-51
2022/10/13 10:02:23;;;;;;;11.13;6.80;;;18.10;99.90;;;;;;5078535;28;20216;-51
2022/10/13 10:04:53;;;;;;;11.07;7.97;;;18.10;99.90;;;;;;5081911;28;20723;-50
2022/10/13 10:07:25;;;;;;;7.33;6.73;;;18.60;99.90;;;;;;5092034;28;20200;-51
2022/10/13 10:09:54;;;;;;;9.00;7.47;;;18.60;99.90;;;;;;5086429;28;20224;-51
2022/10/13 10:12:29;;;;;;;10.00;7.40;;;18.80;99.90;;;;;;5086522;28;20224;-51
2022/10/13 10:14:57;;;;;;;7.63;7.00;;;18.90;99.90;;;;;;5091799;28;20265;-51
2022/10/13 10:17:30;;;;;;;9.70;7.00;;;19.60;99.90;;;;;;5077069;28;20786;-51
2022/10/13 10:20:12;;;;;;;12.90;7.33;;;20.10;99.90;;;;;;5078838;28;20189;-51
2022/10/13 10:22:47;;;;;;;7.30;6.67;;;20.10;99.90;;;;;;5029076;28;1212851;-51
2022/10/13 10:25:26;;;;;;;7.53;6.87;;;20.40;99.90;;;;;;5071841;28;20246;-51
2022/10/13 10:28:16;;;;;;;9.80;8.80;;;20.50;99.90;;;;;;5072592;28;20228;-51
2022/10/13 10:30:50;;;;;;;7.87;7.13;;;20.30;99.90;;;;;;5090707;28;20213;-52
2022/10/13 10:33:21;;;;;;;10.97;8.23;;;20.10;99.90;;;;;;5082983;28;20216;-51
2022/10/13 10:35:54;;;;;;;11.57;8.00;;;20.00;99.90;;;;;;5079132;28;20246;-51
2022/10/13 10:38:30;;;;;;;9.60;8.70;;;19.90;99.90;;;;;;5071861;28;20270;-51
2022/10/13 10:41:06;;;;;;;10.87;9.77;;;19.80;99.90;;;;;;5071690;28;20189;-51
2022/10/13 10:43:46;;;;;;;10.57;9.13;;;19.60;99.90;;;;;;5071785;28;20213;-51
2022/10/13 10:46:17;;;;;;;16.80;10.60;;;18.90;99.90;;;;;;5071079;28;20659;-52
2022/10/13 10:48:46;;;;;;;11.50;10.30;;;18.80;99.90;;;;;;5071919;28;20254;-52
2022/10/13 10:51:14;;;;;;;11.20;9.13;;;18.70;99.90;;;;;;5078315;28;20641;-51
2022/10/13 10:53:54;;;;;;;11.77;10.00;;;18.50;99.90;;;;;;5070488;28;20625;-51
2022/10/13 10:56:30;;;;;;;17.27;9.17;;;18.40;99.90;;;;;;5086548;28;20253;-52
2022/10/13 10:59:16;;;;;;;11.73;8.93;;;18.40;99.90;;;;;;5084077;28;20204;-51
2022/10/13 11:01:48;;;;;;;10.47;9.23;;;18.30;99.90;;;;;;5074671;28;20197;-52
2022/10/13 11:04:34;;;;;;;10.80;8.97;;;18.30;99.90;;;;;;5071583;28;20555;-52
2022/10/13 11:07:01;;;;;;;14.10;10.20;;;18.30;99.90;;;;;;5075371;28;20198;-51
2022/10/13 11:10:02;;;;;;;9.70;8.03;;;18.30;99.90;;;;;;5084876;28;20224;-52
2022/10/13 11:13:01;;;;;;;10.20;8.33;;;18.40;99.90;;;;;;5071775;28;20221;-52
2022/10/13 11:15:40;;;;;;;12.57;9.37;;;18.30;99.90;;;;;;5071610;28;20258;-51
2022/10/13 11:18:41;;;;;;;16.03;10.97;;;18.30;99.90;;;;;;5072346;28;20258;-51
2022/10/13 11:21:08;;;;;;;11.70;8.17;;;18.20;99.90;;;;;;5071544;28;20251;-52
2022/10/13 11:23:43;;;;;;;11.03;7.77;;;18.20;99.90;;;;;;5076696;28;20217;-52
2022/10/13 11:26:31;;;;;;;9.27;8.30;;;18.20;99.90;;;;;;5084828;28;20200;-51
2022/10/13 11:28:59;;;;;;;11.20;9.33;;;18.30;99.90;;;;;;5091858;28;20253;-51
2022/10/13 11:31:47;;;;;;;12.57;9.63;;;18.50;99.90;;;;;;5091649;28;20220;-51
2022/10/13 11:34:28;;;;;;;8.27;7.50;;;18.40;99.90;;;;;;5091039;28;20208;-51
2022/10/13 11:36:58;;;;;;;12.20;9.90;;;18.50;99.90;;;;;;5071830;28;20254;-52
2022/10/13 11:40:00;;;;;;;10.27;8.73;;;18.50;99.90;;;;;;5080545;28;20650;-52
2022/10/13 11:42:52;;;;;;;12.13;9.00;;;18.50;99.90;;;;;;5079713;28;20219;-52
2022/10/13 11:45:48;;;;;;;9.77;8.53;;;18.70;99.90;;;;;;5071473;28;20201;-52
2022/10/13 11:49:04;;;;;;;10.37;9.27;;;18.70;99.90;;;;;;5071602;28;20738;-51
2022/10/13 11:51:46;;;;;;;10.53;9.23;;;19.00;99.90;;;;;;5090775;28;20269;-51
2022/10/13 11:54:23;;;;;;;9.57;8.57;;;19.00;99.90;;;;;;5091410;28;20208;-52
2022/10/13 11:56:52;;;;;;;15.37;9.20;;;18.80;99.90;;;;;;5079990;28;20204;-51
2022/10/13 11:59:25;;;;;;;10.93;9.13;;;18.50;99.90;;;;;;5072756;28;20291;-52
2022/10/13 12:01:57;;;;;;;11.23;8.77;;;18.40;99.90;;;;;;5075354;28;20225;-51
2022/10/13 12:04:26;;;;;;;9.00;7.43;;;18.40;99.90;;;;;;5074998;28;20258;-53
2022/10/13 12:07:00;;;;;;;9.23;8.30;;;18.50;99.90;;;;;;5075333;28;20200;-51
2022/10/13 12:09:27;;;;;;;9.00;8.10;;;18.60;99.90;;;;;;5075849;28;20679;-52
2022/10/13 12:12:00;;;;;;;7.93;7.23;;;18.70;99.90;;;;;;5078996;28;20311;-52
2022/10/13 12:14:32;;;;;;;10.27;7.80;;;18.80;99.90;;;;;;5090598;28;20196;-51
2022/10/13 12:17:01;;;;;;;7.50;6.90;;;18.70;99.90;;;;;;5095366;28;20770;-53
2022/10/13 12:19:30;;;;;;;9.53;7.00;;;18.70;99.90;;;;;;5095498;28;20291;-51
2022/10/13 12:22:00;;;;;;;7.40;6.10;;;18.70;99.90;;;;;;5095123;28;20236;-52
2022/10/13 12:24:30;;;;;;;8.17;7.37;;;18.80;99.90;;;;;;5095256;28;20691;-51
2022/10/13 12:26:57;;;;;;;8.23;6.13;;;18.70;99.90;;;;;;5094456;28;20261;-51
2022/10/13 12:29:26;;;;;;;15.17;6.87;;;18.90;99.90;;;;;;5086471;28;20197;-51
2022/10/13 12:31:54;;;;;;;12.43;7.93;;;19.00;99.90;;;;;;5085324;28;20212;-52
2022/10/13 12:34:26;;;;;;;11.43;7.00;;;18.90;99.90;;;;;;5094366;28;20608;-52
2022/10/13 12:36:56;;;;;;;7.43;6.13;;;19.00;99.90;;;;;;5090377;28;20208;-51
2022/10/13 12:39:26;;;;;;;8.67;7.07;;;19.20;99.90;;;;;;5089791;28;20625;-51
2022/10/13 12:41:55;;;;;;;6.87;6.20;;;19.30;99.90;;;;;;5086627;28;20217;-50
2022/10/13 12:44:24;;;;;;;8.20;7.23;;;19.40;99.90;;;;;;5084725;28;20197;-52
2022/10/13 12:46:54;;;;;;;7.33;6.73;;;19.30;99.90;;;;;;5084050;28;20197;-51
2022/10/13 12:49:23;;;;;;;7.43;6.67;;;19.40;99.90;;;;;;5074716;28;20205;-51
2022/10/13 12:51:54;;;;;;;9.23;8.27;;;19.40;99.90;;;;;;5074356;28;20294;-51